Time;durP1;ratioP1;P1;durP2;ratioP2;P2;SDS_P1;SDS_P2;PMS_P1;PMS_P2;Temp;Humidity;BMP_temperature;BMP_pressure;BME280_temperature;BME280_humidity;BME280_pressure;Samples;Min_cycle;Max_cycle;Signal;HPM_P1;HPM_P2
2021/06/29 00:00:02;;;;;;;1.52;1.10;;;;;;;;;;3585296;40;20379;-69
2021/06/29 00:02:28;;;;;;;2.53;1.08;;;;;;;;;;3587505;40;20405;-70
2021/06/29 00:04:56;;;;;;;2.65;1.13;;;;;;;;;;3592274;40;20464;-69
2021/06/29 00:07:22;;;;;;;1.97;1.03;;;;;;;;;;3589153;40;20384;-69
2021/06/29 00:09:48;;;;;;;6.10;1.20;;;;;;;;;;3590962;40;20370;-71
2021/06/29 00:12:14;;;;;;;3.40;1.13;;;;;;;;;;3589737;40;20393;-68
2021/06/29 00:14:41;;;;;;;2.70;1.20;;;;;;;;;;3591617;40;20386;-68
2021/06/29 00:17:07;;;;;;;2.30;1.15;;;;;;;;;;3589592;40;20764;-68
2021/06/29 00:19:33;;;;;;;4.07;1.20;;;;;;;;;;3594263;40;20375;-69
2021/06/29 00:22:01;;;;;;;3.03;1.30;;;;;;;;;;3583781;40;20454;-69
2021/06/29 00:24:27;;;;;;;1.73;1.45;;;;;;;;;;3567721;40;20667;-69
2021/06/29 00:26:54;;;;;;;3.13;1.27;;;;;;;;;;3587073;40;20404;-69
2021/06/29 00:29:20;;;;;;;2.78;1.10;;;;;;;;;;3590989;40;20386;-69
2021/06/29 00:31:46;;;;;;;2.22;1.30;;;;;;;;;;3589177;40;20470;-68
2021/06/29 00:34:12;;;;;;;2.67;1.20;;;;;;;;;;3588205;40;20500;-68
2021/06/29 00:36:39;;;;;;;2.03;1.40;;;;;;;;;;3587826;40;20422;-69
2021/06/29 00:39:06;;;;;;;3.30;1.43;;;;;;;;;;3589402;40;20809;-68
2021/06/29 00:41:32;;;;;;;1.77;1.10;;;;;;;;;;3579508;40;20415;-68
2021/06/29 00:43:59;;;;;;;2.47;1.27;;;;;;;;;;3595782;40;20400;-68
2021/06/29 00:46:25;;;;;;;2.20;1.35;;;;;;;;;;3589820;40;20366;-68
2021/06/29 00:48:51;;;;;;;9.90;1.43;;;;;;;;;;3592069;40;20761;-68
2021/06/29 00:51:18;;;;;;;3.00;1.27;;;;;;;;;;3587797;40;20430;-69
2021/06/29 00:53:45;;;;;;;3.08;1.10;;;;;;;;;;3580775;40;20396;-69
2021/06/29 00:56:19;;;;;;;2.40;1.10;;;;;;;;;;3578536;40;20390;-70
2021/06/29 00:58:46;;;;;;;2.63;1.30;;;;;;;;;;3585818;40;20371;-69
2021/06/29 01:01:12;;;;;;;2.00;1.00;;;;;;;;;;3588902;40;20407;-68
2021/06/29 01:06:14;;;;;;;1.88;1.00;;;;;;;;;;3567118;40;20424;-74
2021/06/29 01:08:41;;;;;;;3.28;1.25;;;;;;;;;;3568315;40;20429;-74
2021/06/29 01:11:07;;;;;;;2.25;1.20;;;;;;;;;;3569014;40;20564;-75
2021/06/29 01:13:37;;;;;;;2.83;1.55;;;;;;;;;;3568625;40;20366;-74
2021/06/29 01:16:05;;;;;;;1.42;1.33;;;;;;;;;;3557282;40;20391;-77
2021/06/29 01:18:31;;;;;;;2.33;1.30;;;;;;;;;;3573154;40;20371;-75
2021/06/29 01:20:59;;;;;;;2.83;1.40;;;;;;;;;;3563873;40;20694;-74
2021/06/29 01:23:28;;;;;;;4.40;1.40;;;;;;;;;;3563793;40;20410;-75
2021/06/29 01:26:09;;;;;;;2.40;1.57;;;;;;;;;;3568578;40;20358;-76
2021/06/29 01:29:00;;;;;;;2.35;1.30;;;;;;;;;;3557726;40;20411;-74
2021/06/29 01:31:23;;;;;;;2.13;1.20;;;;;;;;;;3558129;40;20386;-74
2021/06/29 01:33:49;;;;;;;2.00;1.20;;;;;;;;;;3557632;40;20383;-75
2021/06/29 01:36:17;;;;;;;1.77;1.38;;;;;;;;;;3563599;40;20498;-75
2021/06/29 01:38:45;;;;;;;2.05;1.30;;;;;;;;;;3552996;40;20764;-75
2021/06/29 01:41:12;;;;;;;3.40;1.40;;;;;;;;;;3548507;40;20392;-74
2021/06/29 01:43:44;;;;;;;2.30;1.30;;;;;;;;;;3557380;40;20412;-74
2021/06/29 01:46:11;;;;;;;3.88;1.40;;;;;;;;;;3562658;40;20836;-73
2021/06/29 01:48:37;;;;;;;2.47;1.20;;;;;;;;;;3559500;40;20739;-74
2021/06/29 01:51:03;;;;;;;2.53;1.40;;;;;;;;;;3560038;40;20661;-77
2021/06/29 01:53:31;;;;;;;4.03;1.50;;;;;;;;;;3557157;40;20400;-73
2021/06/29 01:55:57;;;;;;;1.80;1.10;;;;;;;;;;3550078;40;20459;-74
2021/06/29 01:58:25;;;;;;;2.22;1.23;;;22.90;92.60;;;;;;3549362;40;20491;-76
2021/06/29 02:00:52;;;;;;;2.05;1.25;;;22.30;94.10;;;;;;3565643;40;20778;-76
2021/06/29 02:03:18;;;;;;;2.05;1.20;;;22.30;94.20;;;;;;3566570;40;20401;-73
2021/06/29 02:05:44;;;;;;;3.20;1.17;;;22.30;94.10;;;;;;3562410;40;20487;-74
2021/06/29 02:08:10;;;;;;;2.60;1.10;;;22.20;94.30;;;;;;3558457;40;20767;-74
2021/06/29 02:10:37;;;;;;;2.00;1.30;;;22.10;94.50;;;;;;3558347;40;20387;-73
2021/06/29 02:13:03;;;;;;;2.65;1.40;;;22.20;94.50;;;;;;3554349;40;20717;-74
2021/06/29 02:15:29;;;;;;;1.85;1.40;;;22.20;94.80;;;;;;3557328;40;20404;-74
2021/06/29 02:17:55;;;;;;;1.73;1.42;;;;;;;;;;3555261;40;20416;-74
2021/06/29 02:20:22;;;;;;;3.40;1.50;;;;;;;;;;3558425;40;20376;-74
2021/06/29 02:22:49;;;;;;;3.13;1.38;;;;;;;;;;3556763;40;20474;-73
2021/06/29 02:25:15;;;;;;;2.33;1.73;;;;;;;;;;3561340;40;20488;-73
2021/06/29 02:27:42;;;;;;;2.63;1.50;;;;;;;;;;3558206;40;20378;-73
2021/06/29 02:30:09;;;;;;;4.00;1.73;;;;;;;;;;3558377;40;20380;-73
2021/06/29 02:32:36;;;;;;;2.50;1.60;;;;;;;;;;3556993;40;20392;-73
2021/06/29 02:35:02;;;;;;;2.60;1.55;;;;;;;;;;3558862;40;20629;-73
2021/06/29 02:37:28;;;;;;;2.85;1.67;;;;;;;;;;3558221;40;20395;-73
2021/06/29 02:39:54;;;;;;;1.90;1.52;;;;;;;;;;3565091;40;20669;-72
2021/06/29 02:42:21;;;;;;;2.47;1.42;;;;;;;;;;3557960;40;20393;-75
2021/06/29 02:44:48;;;;;;;3.13;1.75;;;;;;;;;;3559592;40;20426;-72
2021/06/29 02:47:15;;;;;;;2.78;1.55;;;;;;;;;;3557329;40;20717;-75
2021/06/29 02:49:41;;;;;;;2.40;1.40;;;;;;;;;;3558418;40;20363;-75
2021/06/29 02:52:07;;;;;;;1.85;1.38;;;;;;;;;;3558141;40;20394;-75
2021/06/29 02:54:34;;;;;;;3.13;1.60;;;;;;;;;;3559745;40;20453;-75
2021/06/29 02:57:00;;;;;;;2.28;1.45;;;;;;;;;;3557780;40;20375;-75
2021/06/29 02:59:26;;;;;;;2.35;1.75;;;;;;;;;;3557373;40;20395;-75
2021/06/29 03:01:54;;;;;;;2.93;1.40;;;;;;;;;;3557918;40;20675;-75
2021/06/29 03:04:19;;;;;;;1.85;1.60;;;22.10;95.10;;;;;;3561657;40;20675;-75
2021/06/29 03:06:45;;;;;;;2.28;1.60;;;21.60;99.90;;;;;;3558404;40;20396;-74
2021/06/29 03:09:11;;;;;;;3.47;1.30;;;20.80;99.90;;;;;;3556966;40;20407;-75
2021/06/29 03:11:38;;;;;;;1.75;1.40;;;21.40;99.90;;;;;;3548795;40;20641;-74
2021/06/29 03:14:05;;;;;;;2.10;1.60;;;21.40;99.90;;;;;;3559187;40;20383;-73
2021/06/29 03:16:31;;;;;;;3.08;1.85;;;21.50;99.90;;;;;;3560282;40;20527;-74
2021/06/29 03:18:59;;;;;;;2.35;1.40;;;21.60;99.90;;;;;;3557885;40;20372;-75
2021/06/29 03:21:25;;;;;;;2.75;1.73;;;21.50;99.90;;;;;;3557434;40;20383;-76
2021/06/29 03:23:51;;;;;;;2.83;1.42;;;21.40;99.90;;;;;;3562367;40;20373;-75
2021/06/29 03:26:17;;;;;;;1.80;1.47;;;21.50;99.90;;;;;;3559221;40;20417;-76
2021/06/29 03:28:43;;;;;;;3.10;1.30;;;21.30;99.90;;;;;;3557711;40;20375;-75
2021/06/29 03:31:09;;;;;;;1.43;1.30;;;21.30;99.90;;;;;;3558472;40;20471;-76
2021/06/29 03:33:35;;;;;;;1.70;1.40;;;21.40;99.90;;;;;;3558919;40;20420;-75
2021/06/29 03:36:03;;;;;;;2.15;1.20;;;21.50;99.90;;;;;;3558757;40;20470;-75
2021/06/29 03:38:29;;;;;;;1.75;1.30;;;21.60;99.90;;;;;;3559233;40;20419;-75
2021/06/29 03:40:55;;;;;;;2.92;1.25;;;21.60;99.90;;;;;;3559779;40;20413;-76
2021/06/29 03:43:21;;;;;;;1.60;1.42;;;21.60;99.90;;;;;;3561758;40;20389;-77
2021/06/29 03:45:47;;;;;;;3.78;1.60;;;21.40;99.90;;;;;;3560257;40;20403;-75
2021/06/29 03:48:13;;;;;;;2.45;1.40;;;21.40;99.90;;;;;;3561315;40;20401;-75
2021/06/29 03:50:39;;;;;;;2.65;1.48;;;21.30;99.90;;;;;;3559787;40;20375;-75
2021/06/29 03:53:07;;;;;;;2.00;1.50;;;21.30;99.90;;;;;;3561159;40;20380;-75
2021/06/29 03:55:33;;;;;;;2.25;1.48;;;21.30;99.90;;;;;;3559793;40;20383;-76
2021/06/29 03:57:59;;;;;;;2.45;1.40;;;21.20;99.90;;;;;;3560747;40;20796;-76
2021/06/29 04:00:25;;;;;;;1.85;1.20;;;21.30;99.90;;;;;;3568176;40;20405;-76
2021/06/29 04:02:51;;;;;;;2.35;1.30;;;21.10;99.90;;;;;;3565579;40;20733;-76
2021/06/29 04:05:17;;;;;;;2.70;1.80;;;;;;;;;;3565067;40;20428;-77
2021/06/29 04:07:44;;;;;;;1.83;1.63;;;;;;;;;;3568926;40;20469;-76
2021/06/29 04:10:12;;;;;;;2.00;1.40;;;;;;;;;;3559866;40;20392;-75
2021/06/29 04:12:38;;;;;;;3.28;2.10;;;;;;;;;;3569059;40;20389;-75
2021/06/29 04:15:05;;;;;;;4.00;1.67;;;;;;;;;;3568867;40;20385;-76
2021/06/29 04:17:31;;;;;;;2.58;1.58;;;;;;;;;;3569126;40;20640;-82
2021/06/29 04:19:57;;;;;;;2.63;1.83;;;;;;;;;;3570549;40;20856;-76
2021/06/29 04:22:23;;;;;;;2.63;1.30;;;;;;;;;;3568920;40;20397;-76
2021/06/29 04:24:49;;;;;;;2.20;1.50;;;;;;;;;;3568691;40;20389;-77
2021/06/29 04:27:17;;;;;;;3.45;1.40;;;;;;;;;;3570596;40;20837;-76
2021/06/29 04:29:44;;;;;;;3.20;1.50;;;;;;;;;;3563803;40;20515;-77
2021/06/29 04:32:10;;;;;;;3.60;1.38;;;;;;;;;;3562937;40;20787;-76
2021/06/29 04:34:36;;;;;;;3.10;1.50;;;;;;;;;;3568271;40;20425;-75
2021/06/29 04:37:03;;;;;;;2.25;1.77;;;20.80;97.70;;;;;;3569175;40;20370;-79
2021/06/29 04:39:29;;;;;;;2.75;1.60;;;21.10;98.10;;;;;;3568618;40;20396;-76
2021/06/29 04:41:55;;;;;;;1.88;1.55;;;21.20;97.90;;;;;;3558126;40;20763;-78
2021/06/29 04:44:22;;;;;;;1.60;1.40;;;21.30;97.90;;;;;;3569503;40;20457;-77
2021/06/29 04:46:50;;;;;;;2.83;1.80;;;21.30;97.90;;;;;;3572262;40;20412;-77
2021/06/29 04:49:16;;;;;;;2.20;1.48;;;21.20;98.00;;;;;;3568409;40;20371;-77
2021/06/29 04:51:42;;;;;;;2.47;1.40;;;21.10;98.40;;;;;;3568795;40;20370;-76
2021/06/29 04:54:08;;;;;;;2.15;1.60;;;21.10;98.30;;;;;;3568252;40;20398;-77
2021/06/29 04:56:34;;;;;;;3.47;1.60;;;21.20;97.90;;;;;;3568636;40;20361;-77
2021/06/29 04:59:02;;;;;;;2.55;1.27;;;21.10;98.20;;;;;;3569769;40;20432;-75
2021/06/29 05:01:32;;;;;;;2.22;1.60;;;21.10;98.50;;;;;;3569746;40;20694;-76
2021/06/29 05:03:58;;;;;;;3.55;1.60;;;21.10;98.50;;;;;;3568443;40;20651;-76
2021/06/29 05:06:24;;;;;;;1.87;1.47;;;21.20;98.40;;;;;;3568965;40;20425;-77
2021/06/29 05:08:50;;;;;;;2.20;1.57;;;21.10;98.60;;;;;;3568557;40;20491;-76
2021/06/29 05:11:16;;;;;;;3.97;2.00;;;21.00;98.80;;;;;;3569062;40;20745;-76
2021/06/29 05:13:41;;;;;;;2.40;1.80;;;21.20;98.40;;;;;;3567687;40;20427;-74
2021/06/29 05:16:08;;;;;;;2.75;1.50;;;21.20;98.70;;;;;;3570274;40;20394;-75
2021/06/29 05:18:35;;;;;;;2.40;1.42;;;;;;;;;;3568387;40;20396;-73
2021/06/29 05:21:02;;;;;;;1.80;1.25;;;;;;;;;;3570978;40;20491;-74
2021/06/29 05:23:28;;;;;;;2.50;1.55;;;;;;;;;;3562286;40;20393;-73
2021/06/29 05:25:54;;;;;;;2.33;1.70;;;;;;;;;;3568072;40;20702;-77
2021/06/29 05:28:21;;;;;;;2.03;1.60;;;;;;;;;;3569009;40;20419;-75
2021/06/29 05:30:48;;;;;;;2.40;1.60;;;;;;;;;;3568224;40;20451;-73
2021/06/29 05:33:14;;;;;;;2.33;1.42;;;;;;;;;;3559152;40;20718;-76
2021/06/29 05:35:42;;;;;;;2.60;1.40;;;;;;;;;;3567957;40;20418;-76
2021/06/29 05:38:08;;;;;;;1.63;1.52;;;;;;;;;;3560997;40;20421;-76
2021/06/29 05:40:34;;;;;;;2.80;1.55;;;;;;;;;;3572159;40;20417;-75
2021/06/29 05:43:01;;;;;;;3.38;1.65;;;;;;;;;;3567838;40;20369;-75
2021/06/29 05:45:27;;;;;;;4.25;1.80;;;;;;;;;;3569168;40;20385;-75
2021/06/29 05:47:54;;;;;;;2.58;1.20;;;;;;;;;;3567971;40;20381;-75
2021/06/29 05:50:21;;;;;;;2.50;1.50;;;;;;;;;;3568886;40;20488;-75
2021/06/29 05:52:49;;;;;;;3.00;1.63;;;;;;;;;;3570671;40;20779;-76
2021/06/29 05:55:15;;;;;;;2.92;1.63;;;;;;;;;;3571885;40;20391;-76
2021/06/29 05:57:42;;;;;;;2.60;1.63;;;;;;;;;;3567045;40;20408;-75
2021/06/29 06:00:10;;;;;;;2.00;1.70;;;21.30;98.40;;;;;;3567928;40;20392;-76
2021/06/29 06:02:38;;;;;;;4.50;1.90;;;21.60;98.40;;;;;;3570300;40;20779;-76
2021/06/29 06:05:05;;;;;;;2.20;1.70;;;21.60;98.40;;;;;;3567806;40;20761;-74
2021/06/29 06:07:32;;;;;;;2.75;1.60;;;;;;;;;;3568294;40;20370;-76
2021/06/29 06:09:59;;;;;;;3.67;1.70;;;;;;;;;;3561020;40;20421;-75
2021/06/29 06:12:26;;;;;;;4.82;1.90;;;;;;;;;;3568175;40;20382;-75
2021/06/29 06:14:52;;;;;;;4.57;1.73;;;;;;;;;;3568856;40;20448;-75
2021/06/29 06:17:19;;;;;;;4.75;1.98;;;;;;;;;;3568153;40;20438;-75
2021/06/29 06:19:45;;;;;;;3.50;1.75;;;;;;;;;;3560782;40;20418;-79
2021/06/29 06:22:11;;;;;;;3.90;1.90;;;;;;;;;;3567870;40;20462;-75
2021/06/29 06:24:37;;;;;;;1.75;1.65;;;;;;;;;;3567031;40;20374;-75
2021/06/29 06:27:08;;;;;;;2.45;1.58;;;;;;;;;;3568263;40;20747;-75
2021/06/29 06:29:34;;;;;;;3.10;1.77;;;;;;;;;;3570057;40;20410;-76
2021/06/29 06:32:00;;;;;;;1.90;1.70;;;;;;;;;;3568243;40;20447;-78
2021/06/29 06:34:26;;;;;;;1.95;1.75;;;;;;;;;;3568171;40;20381;-75
2021/06/29 06:36:53;;;;;;;2.70;1.90;;;;;;;;;;3567974;40;20378;-76
2021/06/29 06:39:19;;;;;;;3.70;2.17;;;;;;;;;;3568055;40;20459;-80
2021/06/29 06:41:45;;;;;;;3.42;2.00;;;;;;;;;;3567964;40;20374;-75
2021/06/29 06:44:13;;;;;;;4.20;1.90;;;;;;;;;;3557139;40;20413;-76
2021/06/29 06:46:39;;;;;;;3.80;1.92;;;;;;;;;;3565154;40;20390;-76
2021/06/29 06:49:05;;;;;;;3.42;1.70;;;;;;;;;;3567942;40;20634;-75
2021/06/29 06:51:31;;;;;;;5.78;2.10;;;;;;;;;;3558716;40;20397;-76
2021/06/29 06:53:57;;;;;;;2.58;1.90;;;;;;;;;;3563118;40;20421;-76
2021/06/29 06:56:24;;;;;;;3.80;1.88;;;;;;;;;;3568029;40;20421;-76
2021/06/29 06:58:50;;;;;;;3.50;1.73;;;;;;;;;;3568058;40;20493;-75
2021/06/29 07:01:17;;;;;;;3.57;2.30;;;;;;;;;;3567978;40;20650;-77
2021/06/29 07:03:44;;;;;;;3.17;1.70;;;;;;;;;;3559797;40;20460;-76
2021/06/29 07:06:12;;;;;;;2.85;1.60;;;;;;;;;;3567482;40;20409;-76
2021/06/29 07:08:38;;;;;;;2.28;1.40;;;;;;;;;;3569738;40;20374;-76
2021/06/29 07:11:05;;;;;;;3.40;1.80;;;;;;;;;;3563637;40;20721;-77
2021/06/29 07:13:32;;;;;;;2.60;1.50;;;;;;;;;;3569437;40;20483;-79
2021/06/29 07:15:58;;;;;;;2.78;1.30;;;;;;;;;;3568051;40;20389;-77
2021/06/29 07:18:25;;;;;;;3.58;1.48;;;;;;;;;;3571596;40;20760;-76
2021/06/29 07:20:51;;;;;;;1.65;1.42;;;;;;;;;;3569986;40;20384;-80
2021/06/29 07:23:18;;;;;;;3.72;1.42;;;;;;;;;;3569397;40;20389;-78
2021/06/29 07:25:45;;;;;;;4.68;1.60;;;;;;;;;;3561330;40;20389;-77
2021/06/29 07:28:11;;;;;;;2.90;1.60;;;;;;;;;;3559849;40;20678;-76
2021/06/29 07:30:37;;;;;;;2.90;1.42;;;;;;;;;;3550400;40;20500;-76
2021/06/29 07:33:04;;;;;;;2.90;1.63;;;;;;;;;;3555926;40;20372;-76
2021/06/29 07:35:32;;;;;;;4.05;1.80;;;;;;;;;;3559528;40;20401;-76
2021/06/29 07:38:01;;;;;;;5.43;1.80;;;21.60;98.60;;;;;;3550487;40;20403;-76
2021/06/29 07:40:29;;;;;;;3.42;1.63;;;;;;;;;;3559006;40;20521;-76
2021/06/29 07:42:56;;;;;;;3.55;1.80;;;;;;;;;;3560980;40;20402;-77
2021/06/29 07:45:22;;;;;;;3.38;1.55;;;;;;;;;;3565379;40;20385;-76
2021/06/29 07:47:49;;;;;;;2.55;1.60;;;;;;;;;;3558347;40;20495;-76
2021/06/29 07:50:15;;;;;;;1.80;1.33;;;;;;;;;;3555443;40;20718;-78
2021/06/29 07:52:42;;;;;;;7.43;2.45;;;;;;;;;;3556807;40;20389;-78
2021/06/29 07:55:09;;;;;;;5.40;2.60;;;;;;;;;;3561635;40;20393;-76
2021/06/29 07:57:35;;;;;;;2.88;1.33;;;;;;;;;;3568570;40;20379;-76
2021/06/29 08:00:01;;;;;;;2.28;1.10;;;;;;;;;;3569646;40;20635;-79
2021/06/29 08:02:27;;;;;;;3.92;1.13;;;;;;;;;;3568813;40;20438;-77
2021/06/29 08:04:54;;;;;;;4.05;1.20;;;;;;;;;;3569799;40;20401;-81
2021/06/29 08:07:20;;;;;;;2.45;1.25;;;;;;;;;;3565634;40;20691;-77
2021/06/29 08:09:47;;;;;;;1.30;0.93;;;;;;;;;;3568973;40;20385;-77
2021/06/29 08:12:13;;;;;;;2.70;1.02;;;;;;;;;;3568573;40;20394;-81
2021/06/29 08:14:40;;;;;;;4.05;1.10;;;;;;;;;;3565983;40;20421;-76
2021/06/29 08:17:06;;;;;;;3.25;1.20;;;;;;;;;;3568449;40;20459;-77
2021/06/29 08:19:33;;;;;;;3.38;1.10;;;;;;;;;;3568493;40;20742;-77
2021/06/29 08:21:59;;;;;;;3.93;1.37;;;;;;;;;;3568820;40;20350;-75
2021/06/29 08:24:25;;;;;;;3.00;0.90;;;;;;;;;;3568742;40;20479;-77
2021/06/29 08:26:53;;;;;;;3.90;1.20;;;;;;;;;;3559643;40;20393;-77
2021/06/29 08:29:19;;;;;;;4.40;1.40;;;;;;;;;;3568920;40;20404;-78
2021/06/29 08:31:45;;;;;;;2.35;1.10;;;;;;;;;;3569834;40;20397;-76
2021/06/29 08:34:12;;;;;;;5.35;1.52;;;;;;;;;;3573303;40;20384;-77
2021/06/29 08:36:41;;;;;;;2.83;1.30;;;;;;;;;;3570877;40;20392;-75
2021/06/29 08:39:07;;;;;;;3.13;1.23;;;;;;;;;;3570462;40;20372;-76
2021/06/29 08:41:34;;;;;;;2.42;1.13;;;;;;;;;;3572435;40;20366;-75
2021/06/29 08:44:01;;;;;;;3.63;1.30;;;;;;;;;;3572106;40;20388;-76
2021/06/29 08:46:27;;;;;;;3.45;0.98;;;;;;;;;;3572939;40;20374;-81
2021/06/29 08:48:54;;;;;;;3.75;1.08;;;;;;;;;;3573585;40;20390;-76
2021/06/29 08:51:20;;;;;;;3.05;1.20;;;;;;;;;;3562930;40;20376;-74
2021/06/29 08:53:46;;;;;;;2.72;1.10;;;;;;;;;;3568462;40;20370;-76
2021/06/29 08:56:16;;;;;;;2.95;0.90;;;;;;;;;;3563037;40;20809;-77
2021/06/29 08:58:42;;;;;;;2.83;1.00;;;;;;;;;;3572205;40;20638;-75
2021/06/29 09:01:12;;;;;;;3.87;1.10;;;;;;;;;;3570564;40;20374;-76
2021/06/29 09:03:38;;;;;;;2.75;0.98;;;;;;;;;;3568280;40;20409;-75
2021/06/29 09:06:05;;;;;;;5.33;1.40;;;;;;;;;;3561037;40;20403;-76
2021/06/29 09:08:38;;;;;;;3.00;0.90;;;;;;;;;;3558081;40;20630;-80
2021/06/29 09:11:09;;;;;;;3.20;1.30;;;;;;;;;;3558532;40;20398;-75
2021/06/29 09:13:35;;;;;;;3.10;1.20;;;;;;;;;;3558324;40;20645;-76
2021/06/29 09:16:01;;;;;;;4.72;1.10;;;;;;;;;;3557322;40;20409;-76
2021/06/29 09:18:29;;;;;;;2.67;1.02;;;;;;;;;;3563528;40;20373;-79
2021/06/29 09:20:58;;;;;;;3.95;0.93;;;;;;;;;;3558384;40;20632;-75
2021/06/29 09:23:25;;;;;;;3.30;1.00;;;;;;;;;;3558315;40;20384;-75
2021/06/29 09:25:52;;;;;;;4.33;1.50;;;;;;;;;;3557440;40;20408;-77
2021/06/29 09:28:20;;;;;;;4.40;1.30;;;;;;;;;;3560090;40;20624;-76
2021/06/29 09:30:47;;;;;;;3.08;1.13;;;;;;;;;;3561368;40;20487;-76
2021/06/29 09:33:14;;;;;;;2.45;1.17;;;;;;;;;;3561124;40;20392;-77
2021/06/29 09:35:42;;;;;;;8.35;1.45;;;;;;;;;;3562347;40;20385;-76
2021/06/29 09:38:09;;;;;;;4.20;0.82;;;;;;;;;;3561398;40;20403;-77
2021/06/29 09:40:36;;;;;;;4.07;1.40;;;;;;;;;;3561389;40;20360;-77
2021/06/29 09:43:10;;;;;;;3.70;0.88;;;;;;;;;;3567549;40;20408;-76
2021/06/29 09:45:37;;;;;;;2.25;1.00;;;;;;;;;;3566349;40;20396;-77
2021/06/29 09:48:08;;;;;;;4.68;1.20;;;;;;;;;;3561601;40;20390;-77
2021/06/29 09:50:54;;;;;;;2.17;1.13;;;;;;;;;;3560092;40;20375;-76
2021/06/29 09:53:26;;;;;;;4.45;1.35;;;;;;;;;;3557720;40;20386;-77
2021/06/29 09:55:53;;;;;;;4.65;1.33;;;;;;;;;;3557240;40;20439;-77
2021/06/29 09:58:20;;;;;;;1.83;1.13;;;;;;;;;;3557955;40;20493;-76
2021/06/29 10:00:48;;;;;;;2.65;1.60;;;;;;;;;;3557239;40;20415;-76
2021/06/29 10:03:29;;;;;;;1.73;0.90;;;;;;;;;;3557871;40;20518;-76
2021/06/29 10:05:55;;;;;;;2.60;0.88;;;;;;;;;;3556414;40;20420;-75
2021/06/29 10:08:22;;;;;;;3.17;1.20;;;;;;;;;;3567744;40;20386;-76
2021/06/29 10:10:50;;;;;;;1.42;0.98;;;;;;;;;;3567552;40;20389;-76
2021/06/29 10:13:17;;;;;;;2.35;1.23;;;;;;;;;;3566384;40;20406;-76
2021/06/29 10:15:43;;;;;;;3.45;1.27;;;;;;;;;;3567900;40;20375;-76
2021/06/29 10:18:10;;;;;;;2.42;0.90;;;;;;;;;;3565367;40;20403;-77
2021/06/29 10:20:53;;;;;;;3.00;1.13;;;;;;;;;;3567358;40;20434;-76
2021/06/29 10:23:20;;;;;;;3.00;1.40;;;;;;;;;;3562332;40;20480;-77
2021/06/29 10:25:46;;;;;;;2.58;1.05;;;;;;;;;;3559869;40;20474;-76
2021/06/29 10:28:14;;;;;;;3.90;1.05;;;;;;;;;;3567496;40;20361;-75
2021/06/29 10:30:41;;;;;;;2.67;1.33;;;;;;;;;;3552214;40;20401;-76
2021/06/29 10:33:08;;;;;;;2.58;1.30;;;;;;;;;;3567437;40;20709;-75
2021/06/29 10:35:34;;;;;;;1.60;1.20;;;;;;;;;;3567796;40;20467;-76
2021/06/29 10:38:00;;;;;;;5.32;1.85;;;;;;;;;;3560485;40;20393;-75
2021/06/29 10:40:27;;;;;;;2.78;1.50;;;;;;;;;;3567543;40;20377;-78
2021/06/29 10:42:56;;;;;;;1.23;0.55;;;;;;;;;;3567861;40;20755;-76
2021/06/29 10:45:23;;;;;;;2.03;0.80;;;;;;;;;;3562392;40;20441;-76
2021/06/29 10:47:50;;;;;;;2.97;0.70;;;;;;;;;;3571894;40;20384;-76
2021/06/29 10:50:16;;;;;;;1.33;0.68;;;;;;;;;;3572729;40;20382;-78
2021/06/29 10:52:43;;;;;;;1.65;0.60;;;;;;;;;;3560650;40;20667;-78
2021/06/29 10:55:24;;;;;;;2.50;0.50;;;;;;;;;;3567299;40;20384;-74
2021/06/29 10:57:51;;;;;;;1.90;0.50;;;;;;;;;;3562623;40;20771;-75
2021/06/29 11:00:28;;;;;;;2.67;0.50;;;;;;;;;;3567018;40;20391;-75
2021/06/29 11:03:01;;;;;;;2.22;0.50;;;;;;;;;;3566669;40;20421;-73
2021/06/29 11:05:29;;;;;;;1.48;0.60;;;24.90;95.20;;;;;;3562331;40;20840;-75
2021/06/29 11:08:05;;;;;;;1.45;0.50;;;;;;;;;;3547059;40;20392;-77
2021/06/29 11:10:33;;;;;;;2.10;0.60;;;;;;;;;;3559699;40;20475;-75
2021/06/29 11:12:59;;;;;;;1.60;0.50;;;;;;;;;;3560260;40;20389;-75
2021/06/29 11:15:40;;;;;;;0.77;0.40;;;;;;;;;;3553986;40;20420;-75
2021/06/29 11:18:07;;;;;;;1.83;0.52;;;;;;;;;;3556275;40;20557;-75
2021/06/29 11:20:43;;;;;;;0.98;0.50;;;;;;;;;;3558195;40;20519;-76
2021/06/29 11:23:11;;;;;;;1.33;0.47;;;;;;;;;;3560728;40;20769;-79
2021/06/29 11:25:42;;;;;;;0.70;0.40;;;;;;;;;;3561231;40;20390;-73
2021/06/29 11:28:10;;;;;;;1.48;0.40;;;;;;;;;;3553466;40;20390;-74
2021/06/29 11:30:53;;;;;;;1.17;0.50;;;;;;;;;;3558046;40;20373;-75
2021/06/29 11:33:34;;;;;;;1.45;0.40;;;;;;;;;;3559204;40;20393;-76
2021/06/29 11:36:01;;;;;;;1.23;0.50;;;;;;;;;;3544998;40;20388;-75
2021/06/29 11:38:34;;;;;;;1.10;0.50;;;;;;;;;;3549268;40;20401;-75
2021/06/29 11:41:17;;;;;;;1.55;0.50;;;;;;;;;;3535777;40;20409;-81
2021/06/29 11:43:44;;;;;;;1.03;0.30;;;;;;;;;;3515450;40;20513;-75
2021/06/29 11:46:11;;;;;;;2.10;0.30;;;;;;;;;;3517109;40;20414;-76
2021/06/29 11:48:38;;;;;;;1.85;0.55;;;;;;;;;;3516398;40;20446;-75
2021/06/29 11:51:04;;;;;;;1.10;0.40;;;;;;;;;;3516586;40;20398;-76
2021/06/29 11:53:30;;;;;;;0.98;0.43;;;;;;;;;;3509187;40;20422;-79
2021/06/29 11:55:57;;;;;;;2.10;0.50;;;;;;;;;;3515857;40;20397;-75
2021/06/29 11:58:23;;;;;;;1.95;0.63;;;;;;;;;;3518230;40;20398;-75
2021/06/29 12:00:49;;;;;;;1.27;0.52;;;;;;;;;;3524941;40;20399;-76
2021/06/29 12:03:19;;;;;;;1.83;0.50;;;;;;;;;;3549470;40;20400;-79
2021/06/29 12:05:46;;;;;;;1.63;0.40;;;;;;;;;;3549517;40;20477;-75
2021/06/29 12:08:13;;;;;;;1.80;0.60;;;;;;;;;;3569579;40;20376;-75
2021/06/29 12:10:40;;;;;;;0.70;0.40;;;;;;;;;;3569207;40;20401;-77
2021/06/29 12:13:08;;;;;;;1.45;0.63;;;;;;;;;;3568549;40;20417;-76
2021/06/29 12:15:35;;;;;;;2.90;1.00;;;;;;;;;;3568409;40;20386;-77
2021/06/29 12:18:03;;;;;;;1.80;1.00;;;;;;;;;;3568429;40;20381;-76
2021/06/29 12:20:31;;;;;;;2.35;0.90;;;;;;;;;;3573450;40;20374;-76
2021/06/29 12:22:58;;;;;;;2.00;0.82;;;;;;;;;;3561361;40;20421;-77
2021/06/29 12:25:26;;;;;;;3.03;1.17;;;;;;;;;;3568171;40;20362;-77
2021/06/29 12:27:53;;;;;;;4.00;1.02;;;;;;;;;;3564334;40;20374;-76
2021/06/29 12:30:24;;;;;;;1.88;1.05;;;;;;;;;;3561519;40;20659;-76
2021/06/29 12:32:50;;;;;;;2.33;1.00;;;;;;;;;;3573499;40;20370;-78
2021/06/29 12:35:18;;;;;;;3.45;1.10;;;;;;;;;;3568025;40;20500;-76
2021/06/29 12:37:52;;;;;;;2.03;1.05;;;;;;;;;;3562125;40;20459;-76
2021/06/29 12:40:18;;;;;;;4.63;1.13;;;;;;;;;;3568225;40;20373;-76
2021/06/29 12:42:44;;;;;;;5.22;1.30;;;;;;;;;;3569237;40;20642;-75
2021/06/29 12:45:11;;;;;;;3.92;1.10;;;;;;;;;;3568726;40;20399;-76
2021/06/29 12:47:37;;;;;;;3.25;1.27;;;;;;;;;;3570037;40;20414;-77
2021/06/29 12:50:04;;;;;;;1.88;1.00;;;;;;;;;;3568419;40;20370;-76
2021/06/29 12:52:30;;;;;;;2.80;1.17;;;;;;;;;;3568119;40;20414;-76
2021/06/29 12:55:06;;;;;;;3.33;1.30;;;25.80;90.80;;;;;;3570783;40;20372;-75
2021/06/29 12:57:37;;;;;;;5.22;1.40;;;;;;;;;;3569172;40;20465;-76
2021/06/29 13:00:05;;;;;;;4.32;1.20;;;31.50;86.80;;;;;;3571972;40;20456;-76
2021/06/29 13:02:32;;;;;;;2.70;1.30;;;30.50;89.00;;;;;;3568234;40;20386;-76
2021/06/29 13:05:00;;;;;;;3.53;1.00;;;;;;;;;;3567419;40;20412;-77
2021/06/29 13:07:34;;;;;;;3.92;1.10;;;;;;;;;;3566971;40;20416;-76
2021/06/29 13:10:06;;;;;;;3.03;1.35;;;;;;;;;;3563907;40;20802;-78
2021/06/29 13:12:32;;;;;;;2.77;1.20;;;;;;;;;;3568533;40;20366;-76
2021/06/29 13:15:01;;;;;;;2.05;1.08;;;;;;;;;;3571498;40;20358;-75
2021/06/29 13:17:27;;;;;;;3.25;1.20;;;30.40;85.00;;;;;;3568321;40;20453;-76
2021/06/29 13:20:03;;;;;;;5.00;1.30;;;;;;;;;;3568476;40;20370;-76
2021/06/29 13:22:38;;;;;;;2.40;1.00;;;;;;;;;;3568201;40;20363;-76
2021/06/29 13:25:07;;;;;;;2.33;1.38;;;;;;;;;;3564751;40;20520;-76
2021/06/29 13:27:33;;;;;;;3.15;1.08;;;;;;;;;;3567989;40;20378;-76
2021/06/29 13:30:02;;;;;;;3.28;1.20;;;31.30;82.50;;;;;;3567948;40;20401;-76
2021/06/29 13:32:35;;;;;;;3.25;1.35;;;32.40;81.10;;;;;;3561830;40;22380;-76
2021/06/29 13:35:02;;;;;;;4.10;1.50;;;32.20;78.70;;;;;;3567244;40;20396;-77
2021/06/29 13:37:29;;;;;;;3.17;1.50;;;;;;;;;;3567945;40;20389;-76
2021/06/29 13:39:55;;;;;;;2.13;1.23;;;;;;;;;;3558373;40;20621;-76
2021/06/29 13:42:24;;;;;;;2.70;1.20;;;;;;;;;;3567800;40;20402;-76
2021/06/29 13:44:57;;;;;;;3.00;1.10;;;;;;;;;;3563082;40;20477;-76
2021/06/29 13:47:23;;;;;;;3.78;1.40;;;;;;;;;;3567595;40;20389;-76
2021/06/29 13:49:56;;;;;;;2.88;0.90;;;;;;;;;;3558703;40;20641;-76
2021/06/29 13:52:22;;;;;;;3.38;1.20;;;31.90;80.10;;;;;;3568222;40;20400;-78
2021/06/29 13:55:03;;;;;;;3.17;1.10;;;;;;;;;;3568912;40;20639;-76
2021/06/29 13:57:31;;;;;;;2.30;1.00;;;;;;;;;;3568174;40;20398;-77
2021/06/29 13:59:56;;;;;;;2.60;0.98;;;31.30;84.90;;;;;;3567988;40;20759;-76
2021/06/29 14:02:30;;;;;;;3.53;1.02;;;31.20;82.40;;;;;;3564519;40;20396;-76
2021/06/29 14:04:56;;;;;;;3.17;1.13;;;;;;;;;;3567492;40;20421;-76
2021/06/29 14:07:23;;;;;;;3.08;1.20;;;;;;;;;;3567925;40;20370;-76
2021/06/29 14:09:49;;;;;;;2.65;0.90;;;;;;;;;;3568072;40;20747;-75
2021/06/29 14:12:23;;;;;;;3.28;1.05;;;30.80;82.90;;;;;;3569717;40;20372;-76
2021/06/29 14:14:51;;;;;;;3.27;1.10;;;;;;;;;;3568551;40;20365;-76
2021/06/29 14:17:18;;;;;;;3.63;0.97;;;;;;;;;;3558319;40;20402;-76
2021/06/29 14:19:44;;;;;;;4.30;1.40;;;;;;;;;;3561094;40;20404;-76
2021/06/29 14:22:17;;;;;;;2.33;1.05;;;;;;;;;;3567674;40;20458;-75